Airfield :
LOGIN :

Register | Disclaimer

   EN    FR    IT 

 










Legend :    VFR   Marginal VFR   IFR   Intensive IFR   Very Intensive IFR
Visi :
Ceiling :
>= 8 km
>= 3000ft
5 to 8 km
1000 to 3000 ft
1500m to 5 km
500 to 1000 ft
800 to 1500m
200 to 500 ft
< 800m
< 200 ft
Symbols :   Thunderstorms  Fog  Heavy snow  Heavy precipitations  Wind > 20 kt
SIGMETs :     Misc.  Thunderstorms  Icing  Turbulence  Mountain Waves  Volcanic Ashes






- Airport Elevation : 3 ft
- IATA code : LWR


EHLW - Leuuwarden Air Base

CURRENT METAR :
  • 052025Z AUTO 21006KT 9999 BKN062 BKN071 OVC081 15/11 Q1008 BLU

EXPIRED METARs :
  • 051955Z AUTO 23007KT 9999 FEW062 SCT070 OVC081 15/11 Q1007 BLU
  • 051925Z AUTO 22007KT 9999 BKN061 BKN068 OVC080 15/11 Q1007 BLU
  • 051855Z AUTO 24006KT 9999 FEW060 BKN080 16/11 Q1007 BLU
  • 051825Z AUTO 27009KT 9999 BKN067 BKN081 16/11 Q1007 BLU
  • 051755Z AUTO 27010KT 250V310 9999 FEW059 17/11 Q1008 BLU

TAF TAF EHLW
Valid from the 05 at 17:00 until the 06 at 05:00 UTC


051626Z 0517/0605 25012KT 9999 FEW025 SCT040
TEMPO 0521/0605 FEW020CB BKN025
BECMG 0523/0601 25020G32KT



MET'MAP, your aeronautical weather chart ! - Copyright ORBIFLY December 2007 - Disclaimer

ORBIFLY MET'MAP TEAM :

Programming & Development : Alexandra Zaïnal
Concept & original design : Baudouin d'Aumeries
Assistance for programming : Marc-Olivier Méhu
Technical & hardware support : Manuel Goepfert

Contact : metmap@orbifly.com




SOURCES & CREDITS :

   NOAA